createdAt,value
2019-05-16T00:02:31.357Z,100794.31
2019-05-16T00:05:14.220Z,100793.64
2019-05-16T00:08:04.689Z,100794.15
2019-05-16T00:10:48.713Z,100790.75
2019-05-16T00:13:39.139Z,100796.18
2019-05-16T00:16:21.759Z,100790.75
2019-05-16T00:19:12.180Z,100788.77
2019-05-16T00:21:55.419Z,100785.80
2019-05-16T00:24:45.779Z,100779.64
2019-05-16T00:27:29.007Z,100778.03
2019-05-16T00:30:19.488Z,100775.47
2019-05-16T00:33:02.098Z,100773.28
2019-05-16T00:36:02.446Z,100764.88
2019-05-16T00:38:57.855Z,100770.20
2019-05-16T00:41:48.326Z,100758.35
2019-05-16T00:44:30.952Z,100761.43
2019-05-16T00:47:21.419Z,100762.30
2019-05-16T00:50:04.549Z,100754.37
2019-05-16T00:52:54.939Z,100755.72
2019-05-16T00:55:38.928Z,100754.85
2019-05-16T00:58:22.472Z,100760.98
2019-05-16T01:01:12.917Z,100758.80
2019-05-16T01:04:03.283Z,100753.53
2019-05-16T01:06:48.372Z,100748.55
2019-05-16T01:09:38.755Z,100751.19
2019-05-16T01:12:21.709Z,100742.55
2019-05-16T01:15:12.178Z,100740.85
2019-05-16T01:17:55.512Z,100744.54
2019-05-16T01:20:47.888Z,100738.53
2019-05-16T01:23:50.179Z,100737.73
2019-05-16T01:26:40.561Z,100728.04
2019-05-16T01:29:23.271Z,100729.61
2019-05-16T01:32:13.651Z,100721.19
2019-05-16T01:34:58.766Z,100721.26
2019-05-16T01:37:48.921Z,100716.72
2019-05-16T01:40:53.519Z,100712.88
2019-05-16T01:43:43.882Z,100716.83
2019-05-16T01:46:28.500Z,100712.33
2019-05-16T01:49:18.912Z,100703.34
2019-05-16T01:52:02.263Z,100707.74
2019-05-16T01:54:52.656Z,100700.88
2019-05-16T01:57:35.990Z,100695.99
2019-05-16T02:00:25.137Z,100698.73
2019-05-16T02:03:11.218Z,100693.36
2019-05-16T02:05:54.538Z,100693.49
2019-05-16T02:08:44.907Z,100688.67
2019-05-16T02:11:28.497Z,100684.73
2019-05-16T02:14:18.995Z,100679.88
2019-05-16T02:17:01.740Z,100680.55
2019-05-16T02:19:52.094Z,100677.39
2019-05-16T02:22:35.088Z,100680.89
2019-05-16T02:25:27.591Z,100678.43
2019-05-16T02:28:39.242Z,100672.88
2019-05-16T02:31:22.958Z,100673.02
2019-05-16T02:34:26.565Z,100669.52
2019-05-16T02:37:25.885Z,100669.66
2019-05-16T02:40:23.598Z,100664.02
2019-05-16T02:43:13.967Z,100670.59
2019-05-16T02:45:56.932Z,100665.75
2019-05-16T02:49:00.810Z,100662.25
2019-05-16T02:51:51.144Z,100660.55
2019-05-16T02:54:54.627Z,100643.88
2019-05-16T02:57:44.980Z,100646.00
2019-05-16T03:03:40.363Z,100648.15
2019-05-16T03:06:43.047Z,100650.78
2019-05-16T03:09:53.871Z,100648.50
2019-05-16T03:12:44.308Z,100647.21
2019-05-16T03:15:34.676Z,100638.20
2019-05-16T03:18:21.316Z,100634.39
2019-05-16T03:21:30.915Z,100641.28
2019-05-16T03:24:34.879Z,100638.20
2019-05-16T03:27:25.263Z,100621.61
2019-05-16T03:30:14.366Z,100623.79
2019-05-16T03:33:05.131Z,100625.17
2019-05-16T03:36:05.722Z,100621.67
2019-05-16T03:38:56.095Z,100629.44
2019-05-16T03:41:41.459Z,100625.45
2019-05-16T03:44:23.880Z,100626.70
2019-05-16T03:47:14.245Z,100626.25
2019-05-16T03:50:17.360Z,100628.47
2019-05-16T03:53:07.731Z,100632.55
2019-05-16T03:55:51.627Z,100619.77
2019-05-16T03:58:34.788Z,100621.82
2019-05-16T04:01:25.176Z,100626.22
2019-05-16T04:04:11.373Z,100623.20
2019-05-16T04:07:01.355Z,100617.77
2019-05-16T04:10:05.081Z,100623.27
2019-05-16T04:12:55.439Z,100616.48
2019-05-16T04:16:01.234Z,100615.72
2019-05-16T04:18:51.391Z,100615.17
2019-05-16T04:21:55.208Z,100615.44
2019-05-16T04:24:45.585Z,100612.88
2019-05-16T04:27:30.941Z,100618.42
2019-05-16T04:30:22.037Z,100614.47
2019-05-16T04:33:25.495Z,100610.70
2019-05-16T04:36:15.841Z,100616.62
2019-05-16T04:39:01.814Z,100613.47
2019-05-16T04:41:51.444Z,100610.70
2019-05-16T04:44:34.373Z,100621.75
2019-05-16T04:47:24.734Z,100614.27
2019-05-16T04:50:11.241Z,100617.11
2019-05-16T04:53:01.415Z,100611.98
2019-05-16T04:56:04.811Z,100613.64
2019-05-16T04:58:55.191Z,100612.08
2019-05-16T05:01:41.073Z,100615.06
2019-05-16T05:04:30.805Z,100610.58
2019-05-16T05:07:34.422Z,100616.13
2019-05-16T05:10:24.799Z,100609.81
2019-05-16T05:13:10.789Z,100613.87
2019-05-16T05:16:01.314Z,100607.69
2019-05-16T05:19:04.849Z,100609.70
2019-05-16T05:21:55.198Z,100606.41
2019-05-16T05:24:40.419Z,100605.61
2019-05-16T05:27:30.462Z,100608.55
2019-05-16T05:30:33.681Z,100611.56
2019-05-16T05:33:24.119Z,100611.50
2019-05-16T05:36:06.969Z,100608.48
2019-05-16T05:39:09.082Z,100607.51
2019-05-16T05:42:01.523Z,100599.62
2019-05-16T05:44:44.331Z,100601.34
2019-05-16T05:50:44.942Z,100598.05
2019-05-16T05:53:35.290Z,100594.33
2019-05-16T05:56:19.733Z,100596.48
2019-05-16T05:59:11.371Z,100597.71
2019-05-16T06:02:14.948Z,100604.12
2019-05-16T06:04:46.222Z,100601.73
2019-05-16T06:07:36.627Z,100602.59
2019-05-16T06:10:19.941Z,100606.64
2019-05-16T06:13:11.063Z,100607.77
2019-05-16T06:16:15.384Z,100594.43
2019-05-16T06:19:05.749Z,100601.16
2019-05-16T06:21:50.331Z,100601.36
2019-05-16T06:24:40.691Z,100604.84
2019-05-16T06:27:23.977Z,100611.78
2019-05-16T06:30:14.363Z,100608.16
2019-05-16T06:32:57.096Z,100603.21
2019-05-16T06:35:47.510Z,100600.70
2019-05-16T06:38:30.157Z,100598.72
2019-05-16T06:41:20.565Z,100592.52
2019-05-16T06:44:03.574Z,100594.42
2019-05-16T06:47:09.060Z,100590.55
2019-05-16T06:50:00.253Z,100588.68
2019-05-16T06:52:51.089Z,100588.58
2019-05-16T06:55:34.569Z,100580.47
2019-05-16T06:58:24.999Z,100579.25
2019-05-16T07:01:09.694Z,100578.28
2019-05-16T07:04:00.201Z,100577.30
2019-05-16T07:07:04.188Z,100572.84
2019-05-16T07:10:01.711Z,100576.68
2019-05-16T07:13:00.786Z,100569.30
2019-05-16T07:15:51.218Z,100574.25
2019-05-16T07:18:35.347Z,100561.64
2019-05-16T07:21:20.192Z,100563.80
2019-05-16T07:24:10.933Z,100560.04
2019-05-16T07:27:14.581Z,100558.20
2019-05-16T07:30:05.325Z,100554.70
2019-05-16T07:32:50.046Z,100549.67
2019-05-16T07:35:40.235Z,100539.15
2019-05-16T07:38:23.313Z,100542.67
2019-05-16T07:41:14.125Z,100540.21
2019-05-16T07:44:20.398Z,100537.95
2019-05-16T07:47:11.287Z,100531.94
2019-05-16T07:50:15.101Z,100531.41
2019-05-16T07:53:05.513Z,100531.41
2019-05-16T07:55:50.589Z,100523.98
2019-05-16T07:58:33.017Z,100525.51
2019-05-16T08:01:23.421Z,100515.83
2019-05-16T08:04:06.605Z,100519.84
2019-05-16T08:06:56.999Z,100518.76
2019-05-16T08:09:40.043Z,100510.80
2019-05-16T08:12:32.994Z,100508.95
2019-05-16T08:15:35.324Z,100513.80
2019-05-16T08:18:25.693Z,100516.47
2019-05-16T08:21:10.950Z,100511.55
2019-05-16T08:24:07.471Z,100513.19
2019-05-16T08:27:06.352Z,100510.96
2019-05-16T08:29:56.776Z,100508.52
2019-05-16T08:32:42.098Z,100501.31
2019-05-16T08:35:31.774Z,100498.95
2019-05-16T08:38:15.231Z,100499.16
2019-05-16T08:44:35.092Z,100498.11
2019-05-16T08:47:25.610Z,100495.31
2019-05-16T08:50:13.922Z,100485.70
2019-05-16T08:52:54.205Z,100486.21
2019-05-16T08:56:03.451Z,100486.98
2019-05-16T08:58:46.470Z,100480.84
2019-05-16T09:01:36.824Z,100483.21
2019-05-16T09:04:43.920Z,100484.47
2019-05-16T09:07:32.397Z,100487.84
2019-05-16T09:10:45.899Z,100484.89
2019-05-16T09:13:07.443Z,100479.59
2019-05-16T09:15:50.799Z,100474.89
2019-05-16T09:18:45.554Z,100476.31
2019-05-16T09:21:47.478Z,100476.73
2019-05-16T09:24:38.068Z,100466.17
2019-05-16T09:27:21.541Z,100462.51
2019-05-16T09:30:12.095Z,100465.91
2019-05-16T09:32:55.350Z,100467.22
2019-05-16T09:35:47.687Z,100460.23
2019-05-16T09:38:49.997Z,100455.41
2019-05-16T09:41:54.539Z,100448.41
2019-05-16T09:44:47.570Z,100448.75
2019-05-16T09:47:39.140Z,100451.67
2019-05-16T09:50:43.143Z,100448.86
2019-05-16T09:53:33.540Z,100443.12
2019-05-16T09:56:16.827Z,100446.20
2019-05-16T09:59:07.370Z,100443.92
2019-05-16T10:01:50.767Z,100439.87
2019-05-16T10:04:41.133Z,100440.77
2019-05-16T10:07:23.709Z,100439.72
2019-05-16T10:10:14.172Z,100438.61
2019-05-16T10:12:57.176Z,100423.11
2019-05-16T10:15:47.585Z,100425.58
2019-05-16T10:18:30.279Z,100428.40
2019-05-16T10:21:20.816Z,100420.00
2019-05-16T10:24:03.495Z,100421.38
2019-05-16T10:26:54.316Z,100417.41
2019-05-16T10:30:01.172Z,100414.30
2019-05-16T10:32:50.282Z,100405.77
2019-05-16T10:35:32.903Z,100410.19
2019-05-16T10:38:23.318Z,100394.60
2019-05-16T10:41:07.328Z,100402.84
2019-05-16T10:43:57.843Z,100388.23
2019-05-16T10:46:40.549Z,100396.72
2019-05-16T10:49:37.291Z,100383.80
2019-05-16T10:52:37.314Z,100378.23
2019-05-16T10:55:20.132Z,100368.98
2019-05-16T10:58:10.593Z,100368.90
2019-05-16T11:01:22.434Z,100362.58
2019-05-16T11:03:48.840Z,100365.88
2019-05-16T11:06:50.084Z,100359.39
2019-05-16T11:09:53.495Z,100369.73
2019-05-16T11:12:51.178Z,100365.36
2019-05-16T11:15:37.415Z,100364.38
2019-05-16T11:18:41.857Z,100367.66
2019-05-16T11:21:32.242Z,100366.73
2019-05-16T11:24:15.408Z,100366.19
2019-05-16T11:26:47.351Z,100361.55
2019-05-16T11:29:51.683Z,100365.03
2019-05-16T11:32:42.084Z,100370.41
2019-05-16T11:35:27.234Z,100361.80
2019-05-16T11:38:17.991Z,100361.08
2019-05-16T11:41:01.831Z,100360.89
2019-05-16T11:43:52.243Z,100352.81
2019-05-16T11:46:37.431Z,100356.05
2019-05-16T11:49:27.673Z,100357.16
2019-05-16T11:52:31.651Z,100341.67
2019-05-16T11:55:22.246Z,100343.22
2019-05-16T11:58:06.759Z,100343.19
2019-05-16T12:00:57.710Z,100335.72
2019-05-16T12:04:01.933Z,100339.45
2019-05-16T12:06:52.313Z,100331.95
2019-05-16T12:09:46.602Z,100334.80
2019-05-16T12:12:27.849Z,100324.13
2019-05-16T12:15:11.058Z,100326.97
2019-05-16T12:18:05.013Z,100324.17
2019-05-16T12:21:07.697Z,100322.00
2019-05-16T12:23:58.353Z,100315.69
2019-05-16T12:26:41.670Z,100304.89
2019-05-16T12:29:32.051Z,100305.41
2019-05-16T12:32:03.515Z,100297.97
2019-05-16T12:34:54.124Z,100309.00
2019-05-16T12:37:44.557Z,100297.68
2019-05-16T12:40:49.593Z,100298.70
2019-05-16T12:43:48.938Z,100300.05
2019-05-16T12:46:47.260Z,100288.32
2019-05-16T12:49:36.988Z,100289.17
2019-05-16T12:52:20.407Z,100292.41
2019-05-16T12:55:10.899Z,100292.27
2019-05-16T12:57:58.738Z,100292.45
2019-05-16T13:00:37.326Z,100292.92
2019-05-16T13:03:27.940Z,100291.91
2019-05-16T13:06:10.413Z,100290.54
2019-05-16T13:09:00.798Z,100284.09
2019-05-16T13:11:43.756Z,100279.62
2019-05-16T13:14:37.303Z,100284.36
2019-05-16T13:17:38.574Z,100275.08
2019-05-16T13:20:28.952Z,100254.20
2019-05-16T13:23:18.088Z,100258.19
2019-05-16T13:26:07.022Z,100249.23
2019-05-16T13:29:09.310Z,100255.41
2019-05-16T13:31:59.663Z,100250.36
2019-05-16T13:34:43.143Z,100242.70
2019-05-16T13:37:33.547Z,100240.59
2019-05-16T13:40:17.416Z,100239.58
2019-05-16T13:43:10.174Z,100238.14
2019-05-16T13:46:12.403Z,100235.77
2019-05-16T13:48:54.959Z,100225.76
2019-05-16T13:51:45.320Z,100221.61
2019-05-16T13:54:28.395Z,100211.79
2019-05-16T13:57:18.760Z,100203.37
2019-05-16T14:00:01.750Z,100202.48
2019-05-16T14:02:52.140Z,100195.77
2019-05-16T14:05:37.890Z,100195.92
2019-05-16T14:08:27.644Z,100190.23
2019-05-16T14:11:10.922Z,100186.26
2019-05-16T14:14:04.589Z,100191.78
2019-05-16T14:17:14.134Z,100189.67
2019-05-16T14:19:58.194Z,100188.16
2019-05-16T14:22:41.591Z,100180.62
2019-05-16T14:25:31.988Z,100176.91
2019-05-16T14:28:17.125Z,100172.81
2019-05-16T14:31:07.524Z,100163.51
2019-05-16T14:33:50.808Z,100165.70
2019-05-16T14:36:41.191Z,100155.02
2019-05-16T14:39:28.130Z,100154.26
2019-05-16T14:42:08.858Z,100140.35
2019-05-16T14:45:10.386Z,100136.39
2019-05-16T14:48:06.862Z,100135.05
2019-05-16T14:50:57.472Z,100131.44
2019-05-16T14:54:01.107Z,100129.47
2019-05-16T14:56:51.496Z,100130.44
2019-05-16T14:59:56.569Z,100126.05
2019-05-16T15:02:47.999Z,100129.95
2019-05-16T15:05:54.808Z,100136.30
2019-05-16T15:08:43.545Z,100134.98
2019-05-16T15:11:28.179Z,100126.89
2019-05-16T15:14:18.271Z,100109.55
2019-05-16T15:17:01.778Z,100105.88
2019-05-16T15:19:52.146Z,100106.48
2019-05-16T15:22:38.347Z,100101.75
2019-05-16T15:25:28.198Z,100098.08
2019-05-16T15:28:11.145Z,100100.33
2019-05-16T15:31:01.505Z,100094.25
2019-05-16T15:33:44.719Z,100098.23
2019-05-16T15:36:37.259Z,100092.41
2019-05-16T15:39:39.871Z,100091.75
2019-05-16T15:42:30.224Z,100078.91
2019-05-16T15:45:17.616Z,100082.25
2019-05-16T15:48:08.575Z,100077.31
2019-05-16T15:51:11.451Z,100070.42
2019-05-16T15:57:31.039Z,100070.98
2019-05-16T16:03:47.277Z,100054.39
2019-05-16T16:06:49.847Z,100057.05
2019-05-16T16:09:40.333Z,100055.33
2019-05-16T16:12:23.351Z,100051.71
2019-05-16T16:15:13.765Z,100048.51
2019-05-16T16:17:58.838Z,100041.13
2019-05-16T16:20:49.224Z,100040.52
2019-05-16T16:23:32.384Z,100037.66
2019-05-16T16:26:22.776Z,100030.40
2019-05-16T16:29:07.301Z,100031.68
2019-05-16T16:31:57.821Z,100027.78
2019-05-16T16:34:41.299Z,100026.67
2019-05-16T16:37:31.715Z,100017.17
2019-05-16T16:40:17.402Z,100015.96
2019-05-16T16:43:07.935Z,100010.36
2019-05-16T16:46:13.538Z,100011.52
2019-05-16T16:48:57.428Z,100009.56
2019-05-16T16:51:48.219Z,100010.42
2019-05-16T16:54:52.010Z,100006.51
2019-05-16T16:57:42.384Z,100003.34
2019-05-16T17:00:28.006Z,99998.69
2019-05-16T17:03:17.774Z,100002.78
2019-05-16T17:06:21.259Z,99995.52
2019-05-16T17:09:11.641Z,99998.06
2019-05-16T17:11:57.023Z,99991.83
2019-05-16T17:14:47.038Z,99993.73
2019-05-16T17:17:29.997Z,99992.90
2019-05-16T17:20:20.717Z,99988.06
2019-05-16T17:23:03.622Z,99988.72
2019-05-16T17:25:56.428Z,99982.21
2019-05-16T17:28:58.388Z,99976.45
2019-05-16T17:31:55.809Z,99982.94
2019-05-16T17:34:55.384Z,99976.60
2019-05-16T17:37:46.671Z,99976.98
2019-05-16T17:40:49.953Z,99970.71
2019-05-16T17:43:59.375Z,99970.69
2019-05-16T17:46:42.105Z,99970.77
2019-05-16T17:49:32.533Z,99961.59
2019-05-16T17:52:16.553Z,99962.25
2019-05-16T17:55:27.831Z,99962.42
2019-05-16T17:58:10.608Z,99965.80
2019-05-16T18:01:01.053Z,99960.69
2019-05-16T18:03:44.440Z,99958.02
2019-05-16T18:06:36.972Z,99958.41
2019-05-16T18:09:43.028Z,99956.41
2019-05-16T18:12:52.931Z,99960.36
2019-05-16T18:15:36.734Z,99956.53
2019-05-16T18:18:19.435Z,99955.87
2019-05-16T18:21:09.869Z,99953.89
2019-05-16T18:23:52.902Z,99954.31
2019-05-16T18:26:43.377Z,99955.33
2019-05-16T18:29:36.352Z,99952.59
2019-05-16T18:32:38.458Z,99949.59
2019-05-16T18:35:28.810Z,99946.25
2019-05-16T18:38:13.125Z,99943.98
2019-05-16T18:44:21.705Z,99937.58
2019-05-16T18:47:34.472Z,99933.47
2019-05-16T18:50:18.389Z,99930.72
2019-05-16T18:53:09.405Z,99923.42
2019-05-16T18:55:52.629Z,99923.88
2019-05-16T18:58:43.084Z,99924.37
2019-05-16T19:01:26.938Z,99923.86
2019-05-16T19:04:17.798Z,99920.20
2019-05-16T19:07:27.318Z,99920.27
2019-05-16T19:10:31.146Z,99918.83
2019-05-16T19:13:21.624Z,99917.70
2019-05-16T19:16:12.112Z,99916.28
2019-05-16T19:18:56.554Z,99919.35
2019-05-16T19:21:47.057Z,99918.67
2019-05-16T19:24:29.886Z,99917.36
2019-05-16T19:30:41.188Z,99905.88
2019-05-16T19:33:24.681Z,99905.18
2019-05-16T19:36:16.524Z,99906.90
2019-05-16T19:39:19.235Z,99904.41
2019-05-16T19:42:09.700Z,99905.52
2019-05-16T19:44:52.776Z,99907.20
2019-05-16T19:47:43.246Z,99908.30
2019-05-16T19:50:26.703Z,99908.77
2019-05-16T19:53:17.285Z,99900.97
2019-05-16T19:56:00.773Z,99906.33
2019-05-16T19:58:51.260Z,99902.37
2019-05-16T20:01:22.603Z,99909.64
2019-05-16T20:04:15.468Z,99911.03
2019-05-16T20:07:26.378Z,99906.09
2019-05-16T20:10:29.659Z,99904.00
2019-05-16T20:13:19.519Z,99895.39
2019-05-16T20:16:02.024Z,99892.29
2019-05-16T20:18:46.626Z,99894.83
2019-05-16T20:21:40.377Z,99892.89
2019-05-16T20:24:42.808Z,99892.67
2019-05-16T20:27:33.285Z,99885.55
2019-05-16T20:30:17.097Z,99887.72
2019-05-16T20:33:09.546Z,99884.16
2019-05-16T20:36:12.310Z,99885.00
2019-05-16T20:39:02.800Z,99880.05
2019-05-16T20:41:47.524Z,99881.77
2019-05-16T20:44:38.075Z,99877.83
2019-05-16T20:47:20.835Z,99874.89
2019-05-16T20:50:30.545Z,99872.47
2019-05-16T20:53:13.772Z,99872.25
2019-05-16T20:56:06.434Z,99862.02
2019-05-16T20:59:08.685Z,99867.97
2019-05-16T21:02:01.245Z,99864.87
2019-05-16T21:04:32.615Z,99858.31
2019-05-16T21:07:23.016Z,99861.23
2019-05-16T21:10:07.912Z,99860.92
2019-05-16T21:12:58.098Z,99855.34
2019-05-16T21:15:41.029Z,99858.31
2019-05-16T21:18:31.696Z,99851.41
2019-05-16T21:21:16.614Z,99851.25
2019-05-16T21:24:07.090Z,99857.84
2019-05-16T21:27:11.069Z,99848.16
2019-05-16T21:30:01.459Z,99846.63
2019-05-16T21:32:46.996Z,99842.98
2019-05-16T21:35:36.795Z,99843.64
2019-05-16T21:38:19.928Z,99841.02
2019-05-16T21:41:10.375Z,99839.72
2019-05-16T21:44:13.137Z,99842.05
2019-05-16T21:47:03.567Z,99829.64
2019-05-16T21:49:47.186Z,99838.04
2019-05-16T21:52:37.755Z,99836.47
2019-05-16T21:55:20.812Z,99830.81
2019-05-16T21:58:11.208Z,99835.63
2019-05-16T22:00:56.685Z,99834.36
2019-05-16T22:03:47.232Z,99834.69
2019-05-16T22:06:30.034Z,99824.02
2019-05-16T22:09:14.315Z,99829.97
2019-05-16T22:12:06.676Z,99822.93
2019-05-16T22:15:09.058Z,99820.52
2019-05-16T22:17:59.434Z,99818.89
2019-05-16T22:20:42.543Z,99818.52
2019-05-16T22:23:32.953Z,99817.20
2019-05-16T22:26:17.310Z,99817.97
2019-05-16T22:29:00.331Z,99813.53
2019-05-16T22:31:50.743Z,99804.02
2019-05-16T22:34:34.263Z,99804.78
2019-05-16T22:37:17.389Z,99795.73
2019-05-16T22:40:08.070Z,99800.09
2019-05-16T22:42:51.313Z,99792.95
2019-05-16T22:45:41.680Z,99795.11
2019-05-16T22:48:26.529Z,99793.76
2019-05-16T22:51:09.302Z,99786.00
2019-05-16T22:53:59.659Z,99789.11
2019-05-16T22:56:42.427Z,99789.88
2019-05-16T22:59:32.811Z,99794.92
2019-05-16T23:02:16.812Z,99777.04
2019-05-16T23:05:07.553Z,99781.83
2019-05-16T23:08:02.133Z,99780.52
2019-05-16T23:10:42.896Z,99777.94
2019-05-16T23:13:26.618Z,99772.40
2019-05-16T23:16:17.301Z,99772.84
2019-05-16T23:19:00.047Z,99766.73
2019-05-16T23:21:50.391Z,99766.05
2019-05-16T23:24:33.593Z,99763.33
2019-05-16T23:27:23.969Z,99758.05
2019-05-16T23:30:07.628Z,99766.09
2019-05-16T23:32:58.028Z,99756.84
2019-05-16T23:35:40.668Z,99755.89
2019-05-16T23:38:31.021Z,99745.45
2019-05-16T23:41:14.547Z,99746.97
2019-05-16T23:44:07.263Z,99739.97
2019-05-16T23:47:10.152Z,99738.91
2019-05-16T23:50:00.501Z,99732.64
2019-05-16T23:52:43.434Z,99729.80
2019-05-16T23:55:33.819Z,99734.98
2019-05-16T23:58:16.397Z,99732.73
